Terminal Aerodrome Forecast
Issued by NWS Mt. Holly, NJ

Current Version | Previous Version | Text Only | Print | Product List | Glossary On
Versions: 1 2 3 4 5 6 7 8 9 10 11 12 13 14 15 16 17 18 19 20 21 22 23 24 25 26
000
FTUS41 KPHI 270715 AAB
TAFPHL
TAF AMD
KPHL 270715Z 2707/2812 32004KT 6SM -SHRA OVC060
     FM270900 24004KT P6SM BKN070
     FM271200 28004KT P6SM SCT070
     FM271400 25008KT P6SM BKN150
     FM271700 27012KT P6SM BKN070
     FM272300 28008KT P6SM SCT060=

USA.gov is the U.S. government's official web portal to all federal, state and local government web resources and services.